createdAt,value
2023-03-29T00:01:07.488Z,7.68
2023-03-29T00:04:10.513Z,8.40
2023-03-29T00:07:14.259Z,9.50
2023-03-29T00:10:16.716Z,7.43
2023-03-29T00:13:19.217Z,9.00
2023-03-29T00:16:21.561Z,6.60
2023-03-29T00:19:24.100Z,7.80
2023-03-29T00:22:26.570Z,7.30
2023-03-29T00:25:28.836Z,7.65
2023-03-29T00:28:31.629Z,7.45
2023-03-29T00:31:34.119Z,7.77
2023-03-29T00:34:36.487Z,7.65
2023-03-29T00:41:16.452Z,11.07
2023-03-29T00:45:13.187Z,9.30
2023-03-29T00:48:21.788Z,9.82
2023-03-29T00:51:27.580Z,6.82
2023-03-29T00:54:29.882Z,6.55
2023-03-29T00:57:34.378Z,7.03
2023-03-29T01:00:40.934Z,10.32
2023-03-29T01:03:47.793Z,6.53
2023-03-29T01:06:55.942Z,8.45
2023-03-29T01:10:12.132Z,10.65
2023-03-29T01:13:27.317Z,6.65
2023-03-29T01:16:33.222Z,8.80
2023-03-29T01:19:40.982Z,8.00
2023-03-29T01:23:16.021Z,6.65
2023-03-29T01:26:19.006Z,9.45
2023-03-29T01:29:28.613Z,6.97
2023-03-29T01:32:36.191Z,7.25
2023-03-29T01:35:45.373Z,8.27
2023-03-29T01:38:58.124Z,8.30
2023-03-29T01:42:09.436Z,7.10
2023-03-29T01:45:28.182Z,8.27
2023-03-29T01:48:30.394Z,6.70
2023-03-29T01:51:38.391Z,9.60
2023-03-29T01:54:46.086Z,10.32
2023-03-29T01:57:49.668Z,7.82
2023-03-29T02:00:55.553Z,6.70
2023-03-29T02:07:03.795Z,7.45
2023-03-29T02:10:07.524Z,8.50
2023-03-29T02:16:13.405Z,8.52
2023-03-29T02:19:17.619Z,10.38
2023-03-29T02:22:24.501Z,12.13
2023-03-29T02:25:27.219Z,17.73
2023-03-29T02:28:30.656Z,9.17
2023-03-29T02:31:41.634Z,9.40
2023-03-29T02:35:13.928Z,7.30
2023-03-29T02:38:17.460Z,7.03
2023-03-29T02:41:20.954Z,6.93
2023-03-29T02:44:25.516Z,5.03
2023-03-29T02:47:41.080Z,7.43
2023-03-29T02:50:46.109Z,12.13
2023-03-29T02:54:03.188Z,11.43
2023-03-29T02:57:06.725Z,13.77
2023-03-29T03:00:10.402Z,14.00
2023-03-29T03:03:13.727Z,11.98
2023-03-29T03:06:16.172Z,12.93
2023-03-29T03:12:23.143Z,10.80
2023-03-29T03:15:26.562Z,10.07
2023-03-29T03:18:29.408Z,7.80
2023-03-29T03:21:31.858Z,11.30
2023-03-29T03:24:35.604Z,15.40
2023-03-29T03:27:39.856Z,8.20
2023-03-29T03:30:42.312Z,8.80
2023-03-29T03:34:03.427Z,9.73
2023-03-29T03:37:16.669Z,10.82
2023-03-29T03:40:19.149Z,13.13
2023-03-29T03:43:21.548Z,10.88
2023-03-29T03:46:26.279Z,11.25
2023-03-29T03:49:30.203Z,10.32
2023-03-29T03:52:32.678Z,12.95
2023-03-29T03:55:35.211Z,11.33
2023-03-29T03:58:44.069Z,20.73
2023-03-29T04:01:46.572Z,15.63
2023-03-29T04:04:55.375Z,10.38
2023-03-29T04:08:06.786Z,10.48
2023-03-29T04:11:38.320Z,10.20
2023-03-29T04:17:52.947Z,10.07
2023-03-29T04:21:08.645Z,10.50
2023-03-29T04:24:11.533Z,9.00
2023-03-29T04:27:17.525Z,13.68
2023-03-29T04:30:20.102Z,9.07
2023-03-29T04:33:41.397Z,7.85
2023-03-29T04:36:44.984Z,14.27
2023-03-29T04:39:54.707Z,16.58
2023-03-29T04:43:00.156Z,11.48
2023-03-29T04:46:03.647Z,12.20
2023-03-29T04:49:26.112Z,11.77
2023-03-29T04:52:33.331Z,11.73
2023-03-29T04:55:37.907Z,28.13
2023-03-29T04:58:44.365Z,13.95
2023-03-29T05:01:47.468Z,11.07
2023-03-29T05:04:50.612Z,20.13
2023-03-29T05:07:54.987Z,54.47
2023-03-29T05:11:02.893Z,66.25
2023-03-29T05:14:07.447Z,43.90
2023-03-29T05:17:10.423Z,36.22
2023-03-29T05:20:13.330Z,38.95
2023-03-29T05:23:18.749Z,32.53
2023-03-29T05:26:53.424Z,20.75
2023-03-29T05:29:56.329Z,14.05
2023-03-29T05:33:05.856Z,29.25
2023-03-29T05:36:13.695Z,25.00
2023-03-29T05:39:21.214Z,28.02
2023-03-29T05:42:24.839Z,26.55
2023-03-29T05:45:34.135Z,17.92
2023-03-29T05:48:37.569Z,10.68
2023-03-29T05:51:42.249Z,7.73
2023-03-29T05:54:46.027Z,10.00
2023-03-29T05:57:48.472Z,11.45
2023-03-29T06:00:52.194Z,13.57
2023-03-29T06:04:19.106Z,10.80
2023-03-29T06:07:32.295Z,12.30
2023-03-29T06:11:04.476Z,14.60
2023-03-29T06:14:37.468Z,11.95
2023-03-29T06:18:06.094Z,18.42
2023-03-29T06:21:10.776Z,14.15
2023-03-29T06:24:13.675Z,10.87
2023-03-29T06:27:21.901Z,12.43
2023-03-29T06:30:25.065Z,9.82
2023-03-29T06:33:30.999Z,10.88
2023-03-29T06:36:53.022Z,18.70
2023-03-29T06:39:57.124Z,18.20
2023-03-29T06:43:08.504Z,15.38
2023-03-29T06:46:14.451Z,12.68
2023-03-29T06:49:39.819Z,41.40
2023-03-29T06:53:15.823Z,20.52
2023-03-29T06:56:22.608Z,10.60
2023-03-29T06:59:35.030Z,9.48
2023-03-29T07:02:49.674Z,16.73
2023-03-29T07:06:01.275Z,11.35
2023-03-29T07:09:06.824Z,10.85
2023-03-29T07:12:34.765Z,9.20
2023-03-29T07:15:38.305Z,11.73
2023-03-29T07:18:53.627Z,10.13
2023-03-29T07:22:13.655Z,9.98
2023-03-29T07:25:25.629Z,9.30
2023-03-29T07:28:27.954Z,9.23
2023-03-29T07:31:30.876Z,14.10
2023-03-29T07:34:52.376Z,16.17
2023-03-29T07:38:15.776Z,8.00
2023-03-29T07:41:24.021Z,12.98
2023-03-29T07:44:33.246Z,8.18
2023-03-29T07:47:35.688Z,7.80
2023-03-29T07:50:38.205Z,11.88
2023-03-29T07:53:40.864Z,6.90
2023-03-29T07:56:57.839Z,6.72
2023-03-29T08:00:11.997Z,6.15
2023-03-29T08:03:16.402Z,8.18
2023-03-29T08:06:18.934Z,5.68
2023-03-29T08:09:21.984Z,5.30
2023-03-29T08:12:25.095Z,8.43
2023-03-29T08:15:30.760Z,8.77
2023-03-29T08:18:35.001Z,9.30
2023-03-29T08:21:38.843Z,8.52
2023-03-29T08:24:41.592Z,7.75
2023-03-29T08:27:44.919Z,6.88
2023-03-29T08:30:50.112Z,7.03
2023-03-29T08:33:53.343Z,8.55
2023-03-29T08:37:15.015Z,13.90
2023-03-29T08:40:24.081Z,9.00
2023-03-29T08:43:36.091Z,9.07
2023-03-29T08:47:04.469Z,10.90
2023-03-29T08:50:13.919Z,8.02
2023-03-29T08:53:32.182Z,6.57
2023-03-29T08:56:46.886Z,7.68
2023-03-29T09:00:25.742Z,9.10
2023-03-29T09:03:34.984Z,9.18
2023-03-29T09:06:45.060Z,8.98
2023-03-29T09:09:57.357Z,9.25
2023-03-29T09:13:11.687Z,9.02
2023-03-29T09:16:50.989Z,7.93
2023-03-29T09:19:54.440Z,14.68
2023-03-29T09:23:27.178Z,11.13
2023-03-29T09:27:17.951Z,11.75
2023-03-29T09:30:27.893Z,9.90
2023-03-29T09:33:43.893Z,7.18
2023-03-29T09:36:57.669Z,10.77
2023-03-29T09:40:02.044Z,8.57
2023-03-29T09:43:41.418Z,14.88
2023-03-29T09:46:57.259Z,7.50
2023-03-29T09:50:16.605Z,7.13
2023-03-29T09:53:26.527Z,9.25
2023-03-29T09:56:52.858Z,12.07
2023-03-29T09:59:59.124Z,3.95
2023-03-29T10:03:01.758Z,4.85
2023-03-29T10:06:26.873Z,9.55
2023-03-29T10:09:34.366Z,5.57
2023-03-29T10:12:53.722Z,8.40
2023-03-29T10:16:09.530Z,3.42
2023-03-29T10:19:27.213Z,14.30
2023-03-29T10:22:41.736Z,3.80
2023-03-29T10:25:44.581Z,3.35
2023-03-29T10:28:46.937Z,4.20
2023-03-29T10:31:50.001Z,10.35
2023-03-29T10:34:52.746Z,4.85
2023-03-29T10:37:58.662Z,9.23
2023-03-29T10:41:10.496Z,5.57
2023-03-29T10:44:33.784Z,5.88
2023-03-29T10:47:36.781Z,8.65
2023-03-29T10:50:39.321Z,8.65
2023-03-29T10:53:42.436Z,5.85
2023-03-29T10:56:56.773Z,10.98
2023-03-29T11:00:15.666Z,6.32
2023-03-29T11:03:24.177Z,5.43
2023-03-29T11:06:52.803Z,4.18
2023-03-29T11:10:06.791Z,4.78
2023-03-29T11:13:17.584Z,4.13
2023-03-29T11:16:28.755Z,4.85
2023-03-29T11:19:46.504Z,6.20
2023-03-29T11:23:05.147Z,5.18
2023-03-29T11:26:27.311Z,4.22
2023-03-29T11:29:35.772Z,5.03
2023-03-29T11:33:01.604Z,6.75
2023-03-29T11:36:21.856Z,4.57
2023-03-29T11:39:48.396Z,6.32
2023-03-29T11:42:54.332Z,8.20
2023-03-29T11:46:02.094Z,8.23
2023-03-29T11:49:14.972Z,5.47
2023-03-29T11:52:30.316Z,5.82
2023-03-29T11:55:34.563Z,4.28
2023-03-29T11:58:41.012Z,6.00
2023-03-29T12:02:18.602Z,4.20
2023-03-29T12:05:33.246Z,7.55
2023-03-29T12:11:47.967Z,7.63
2023-03-29T12:15:22.831Z,6.65
2023-03-29T12:18:26.288Z,5.63
2023-03-29T12:21:30.367Z,4.82
2023-03-29T12:24:33.302Z,6.95
2023-03-29T12:27:47.943Z,4.47
2023-03-29T12:31:22.294Z,6.18
2023-03-29T12:34:36.343Z,5.28
2023-03-29T12:42:16.036Z,7.30
2023-03-29T12:45:48.555Z,8.02
2023-03-29T12:48:55.852Z,5.25
2023-03-29T12:52:00.078Z,8.55
2023-03-29T12:55:05.798Z,10.65
2023-03-29T12:58:21.844Z,6.53
2023-03-29T13:01:30.591Z,8.45
2023-03-29T13:04:44.744Z,7.18
2023-03-29T13:07:47.902Z,5.55
2023-03-29T13:10:55.214Z,10.25
2023-03-29T13:13:57.557Z,5.65
2023-03-29T13:17:18.364Z,5.88
2023-03-29T13:20:37.617Z,6.95
2023-03-29T13:23:49.923Z,8.50
2023-03-29T13:27:09.769Z,16.50
2023-03-29T13:30:30.910Z,6.07
2023-03-29T13:33:47.569Z,6.82
2023-03-29T13:36:58.834Z,4.55
2023-03-29T13:40:01.949Z,5.47
2023-03-29T13:43:25.565Z,4.85
2023-03-29T13:46:44.238Z,4.47
2023-03-29T13:49:59.001Z,5.30
2023-03-29T13:53:13.875Z,6.28
2023-03-29T13:56:27.906Z,5.82
2023-03-29T13:59:50.566Z,3.58
2023-03-29T14:02:56.414Z,6.45
2023-03-29T14:06:01.514Z,11.68
2023-03-29T14:09:09.092Z,7.15
2023-03-29T14:12:14.025Z,11.77
2023-03-29T14:15:28.818Z,8.50
2023-03-29T14:21:38.062Z,7.22
2023-03-29T14:24:50.051Z,13.93
2023-03-29T14:27:52.446Z,7.78
2023-03-29T14:30:56.162Z,11.13
2023-03-29T14:34:01.132Z,6.80
2023-03-29T14:37:04.365Z,9.38
2023-03-29T14:40:12.110Z,8.02
2023-03-29T14:43:22.615Z,10.60
2023-03-29T14:46:25.963Z,11.27
2023-03-29T14:49:29.408Z,11.93
2023-03-29T14:52:32.334Z,8.63
2023-03-29T14:55:36.607Z,13.07
2023-03-29T14:58:40.348Z,12.30
2023-03-29T15:01:44.856Z,6.95
2023-03-29T15:04:59.170Z,6.50
2023-03-29T15:08:02.978Z,7.20
2023-03-29T15:11:14.748Z,10.55
2023-03-29T15:14:17.735Z,16.17
2023-03-29T15:17:23.196Z,13.05
2023-03-29T15:20:34.453Z,12.50
2023-03-29T15:23:48.269Z,7.20
2023-03-29T15:27:15.335Z,9.23
2023-03-29T15:30:19.367Z,11.85
2023-03-29T15:33:24.327Z,9.45
2023-03-29T15:36:27.264Z,6.55
2023-03-29T15:39:30.134Z,6.57
2023-03-29T15:42:32.645Z,6.10
2023-03-29T15:45:35.098Z,6.22
2023-03-29T15:48:37.600Z,5.72
2023-03-29T15:51:40.854Z,6.90
2023-03-29T15:54:43.931Z,10.57
2023-03-29T15:57:47.272Z,9.98
2023-03-29T16:00:53.464Z,7.80
2023-03-29T16:03:55.942Z,12.55
2023-03-29T16:06:58.345Z,16.45
2023-03-29T16:10:00.810Z,20.42
2023-03-29T16:13:03.380Z,29.98
2023-03-29T16:16:06.583Z,11.27
2023-03-29T16:19:09.150Z,10.77
2023-03-29T16:22:11.576Z,17.63
2023-03-29T16:25:19.184Z,11.52
2023-03-29T16:28:22.086Z,12.63
2023-03-29T16:31:27.151Z,15.40
2023-03-29T16:34:30.241Z,17.38
2023-03-29T16:37:32.734Z,18.92
2023-03-29T16:40:36.169Z,20.45
2023-03-29T16:43:38.985Z,36.67
2023-03-29T16:46:43.401Z,73.97
2023-03-29T16:49:48.786Z,49.85
2023-03-29T16:52:54.576Z,61.00
2023-03-29T16:55:57.908Z,30.25
2023-03-29T16:59:00.929Z,50.60
2023-03-29T17:02:03.312Z,49.75
2023-03-29T17:05:06.247Z,63.10
2023-03-29T17:08:10.250Z,106.78
2023-03-29T17:11:13.162Z,51.08
2023-03-29T17:14:15.950Z,31.70
2023-03-29T17:17:18.372Z,26.90
2023-03-29T17:20:20.753Z,15.95
2023-03-29T17:23:23.665Z,15.63
2023-03-29T17:26:26.357Z,31.05
2023-03-29T17:29:28.748Z,17.60
2023-03-29T17:32:31.487Z,16.00
2023-03-29T17:35:34.443Z,15.30
2023-03-29T17:38:38.104Z,17.05
2023-03-29T17:41:40.616Z,10.95
2023-03-29T17:44:43.036Z,15.85
2023-03-29T17:47:45.644Z,15.20
2023-03-29T17:50:48.173Z,22.17
2023-03-29T17:53:52.426Z,15.55
2023-03-29T17:59:57.162Z,12.82
2023-03-29T18:03:00.861Z,14.40
2023-03-29T18:06:04.088Z,16.15
2023-03-29T18:09:06.715Z,10.13
2023-03-29T18:12:09.589Z,15.30
2023-03-29T18:15:12.298Z,13.50
2023-03-29T18:18:14.788Z,19.17
2023-03-29T18:21:17.604Z,15.02
2023-03-29T18:24:19.988Z,15.15
2023-03-29T18:27:22.386Z,18.95
2023-03-29T18:30:24.852Z,21.02
2023-03-29T18:33:27.991Z,18.60
2023-03-29T18:36:30.512Z,18.23
2023-03-29T18:39:34.780Z,19.77
2023-03-29T18:42:37.747Z,22.55
2023-03-29T18:45:40.244Z,21.02
2023-03-29T18:48:42.711Z,15.60
2023-03-29T18:51:46.416Z,17.65
2023-03-29T18:54:48.918Z,13.40
2023-03-29T18:57:51.413Z,18.90
2023-03-29T19:00:54.832Z,19.23
2023-03-29T19:03:57.474Z,10.47
2023-03-29T19:07:01.486Z,14.48
2023-03-29T19:10:05.019Z,15.75
2023-03-29T19:13:07.423Z,11.68
2023-03-29T19:16:09.867Z,18.88
2023-03-29T19:19:12.913Z,20.15
2023-03-29T19:22:15.395Z,16.73
2023-03-29T19:25:17.741Z,18.23
2023-03-29T19:28:20.206Z,15.60
2023-03-29T19:31:22.668Z,14.10
2023-03-29T19:34:25.258Z,20.85
2023-03-29T19:37:27.639Z,14.95
2023-03-29T19:40:30.018Z,14.18
2023-03-29T19:43:32.381Z,14.93
2023-03-29T19:46:34.729Z,14.73
2023-03-29T19:49:38.374Z,18.45
2023-03-29T19:52:41.394Z,17.75
2023-03-29T19:55:45.416Z,14.07
2023-03-29T19:58:49.323Z,15.93
2023-03-29T20:01:51.839Z,14.60
2023-03-29T20:04:55.195Z,16.45
2023-03-29T20:07:57.530Z,20.03
2023-03-29T20:11:00.648Z,18.92
2023-03-29T20:14:03.173Z,16.98
2023-03-29T20:17:05.522Z,20.55
2023-03-29T20:20:13.823Z,22.52
2023-03-29T20:23:17.277Z,19.35
2023-03-29T20:26:19.680Z,16.90
2023-03-29T20:29:22.110Z,21.75
2023-03-29T20:32:24.496Z,13.85
2023-03-29T20:35:27.327Z,20.38
2023-03-29T20:38:29.768Z,13.73
2023-03-29T20:41:33.853Z,22.95
2023-03-29T20:44:36.724Z,19.05
2023-03-29T20:47:42.590Z,20.48
2023-03-29T20:50:49.409Z,15.68
2023-03-29T20:53:51.833Z,20.63
2023-03-29T20:56:55.092Z,19.25
2023-03-29T20:59:57.910Z,12.93
2023-03-29T21:03:00.631Z,16.05
2023-03-29T21:06:03.660Z,20.50
2023-03-29T21:09:06.254Z,21.45
2023-03-29T21:12:08.694Z,20.83
2023-03-29T21:15:13.589Z,23.13
2023-03-29T21:18:16.182Z,21.23
2023-03-29T21:21:18.606Z,21.25
2023-03-29T21:24:21.645Z,19.17
2023-03-29T21:27:23.979Z,29.95
2023-03-29T21:30:26.488Z,22.77
2023-03-29T21:33:28.906Z,18.25
2023-03-29T21:36:31.421Z,24.05
2023-03-29T21:39:33.739Z,26.80
2023-03-29T21:42:36.423Z,19.58
2023-03-29T21:45:38.822Z,20.67
2023-03-29T21:48:41.970Z,25.67
2023-03-29T21:51:44.480Z,28.65
2023-03-29T21:54:46.817Z,24.35
2023-03-29T21:57:49.116Z,22.98
2023-03-29T22:00:51.603Z,20.92
2023-03-29T22:03:54.129Z,18.65
2023-03-29T22:06:56.552Z,24.15
2023-03-29T22:10:04.282Z,22.17
2023-03-29T22:13:06.970Z,20.67
2023-03-29T22:16:13.998Z,24.17
2023-03-29T22:19:16.740Z,26.73
2023-03-29T22:22:19.463Z,24.40
2023-03-29T22:25:23.015Z,24.10
2023-03-29T22:28:25.657Z,22.17
2023-03-29T22:31:29.597Z,20.38
2023-03-29T22:34:32.517Z,22.67
2023-03-29T22:37:35.199Z,22.02
2023-03-29T22:40:40.902Z,20.67
2023-03-29T22:43:43.396Z,23.42
2023-03-29T22:46:45.678Z,20.23
2023-03-29T22:49:47.997Z,23.13
2023-03-29T22:52:50.544Z,22.73
2023-03-29T22:55:53.011Z,20.80
2023-03-29T22:58:55.520Z,23.77
2023-03-29T23:01:57.963Z,23.55
2023-03-29T23:05:00.786Z,22.23
2023-03-29T23:08:03.118Z,23.73
2023-03-29T23:11:06.034Z,25.23
2023-03-29T23:14:08.771Z,22.80
2023-03-29T23:17:11.667Z,23.50
2023-03-29T23:20:14.013Z,26.90
2023-03-29T23:23:17.360Z,21.98
2023-03-29T23:26:20.114Z,27.73
2023-03-29T23:29:22.829Z,28.35
2023-03-29T23:32:25.201Z,26.33
2023-03-29T23:35:27.519Z,28.95
2023-03-29T23:38:30.599Z,24.77
2023-03-29T23:41:32.913Z,27.48
2023-03-29T23:44:35.311Z,25.60
2023-03-29T23:47:38.062Z,26.13
2023-03-29T23:50:40.497Z,23.80
2023-03-29T23:53:43.167Z,24.85
2023-03-29T23:56:45.603Z,23.95
2023-03-29T23:59:52.815Z,27.40
